Asteasu, Spain
Current Conditions -  °F | °C
As of 9:30 PM on Thursday 27 Nov 2014 (Local Time) from LESO Reporting Station
Broken Clouds Broken Clouds  
Wind Chill: 64°   Ceiling: 6800
Heat Index: 64°   Visibility: 6mi
Dew Point: 45°   Wind: 3mph
Humidity: 49%   Direction: 100°E
Pressure: 29.29"   Gusts: NA
Location:  43.19°N, 2.1°W
Report Text: LESO 272030Z 10003KT 030V140 9999 BKN068 18/07 Q0992
Loading
Personal Weather Stations






























Interactive Weather Map New forecast layout! Learn more

10-Day Weather Forecast

Advertisements
Track Severe Weather on mobile